createdAt,value
2022-11-28T00:01:44.705Z,8.20
2022-11-28T00:04:13.891Z,6.55
2022-11-28T00:06:47.099Z,6.32
2022-11-28T00:09:17.268Z,5.80
2022-11-28T00:11:48.481Z,10.27
2022-11-28T00:14:18.716Z,5.63
2022-11-28T00:16:48.009Z,8.07
2022-11-28T00:19:16.465Z,10.90
2022-11-28T00:21:44.847Z,5.90
2022-11-28T00:24:13.404Z,12.50
2022-11-28T00:26:42.538Z,6.78
2022-11-28T00:29:11.520Z,7.60
2022-11-28T00:31:42.809Z,6.72
2022-11-28T00:34:13.753Z,13.55
2022-11-28T00:36:44.823Z,5.85
2022-11-28T00:39:14.022Z,7.07
2022-11-28T00:41:43.256Z,17.38
2022-11-28T00:44:12.579Z,9.18
2022-11-28T00:46:41.011Z,10.48
2022-11-28T00:49:09.507Z,6.72
2022-11-28T00:51:38.277Z,5.72
2022-11-28T00:54:07.026Z,10.25
2022-11-28T00:56:38.682Z,4.80
2022-11-28T00:59:07.405Z,5.75
2022-11-28T01:01:43.963Z,6.30
2022-11-28T01:04:14.846Z,7.57
2022-11-28T01:06:45.717Z,4.63
2022-11-28T01:09:17.876Z,7.82
2022-11-28T01:14:21.651Z,9.65
2022-11-28T01:16:50.326Z,6.00
2022-11-28T01:19:19.114Z,23.25
2022-11-28T01:21:47.924Z,9.50
2022-11-28T01:24:16.496Z,6.10
2022-11-28T01:26:44.903Z,11.23
2022-11-28T01:29:13.337Z,5.95
2022-11-28T01:31:42.307Z,5.82
2022-11-28T01:34:10.759Z,7.05
2022-11-28T01:36:39.250Z,6.72
2022-11-28T01:39:07.896Z,8.82
2022-11-28T01:41:36.552Z,6.78
2022-11-28T01:44:07.902Z,4.53
2022-11-28T01:46:36.774Z,7.43
2022-11-28T01:49:17.260Z,3.45
2022-11-28T01:51:50.842Z,5.72
2022-11-28T01:54:22.511Z,5.80
2022-11-28T01:56:56.946Z,4.43
2022-11-28T01:59:30.380Z,5.55
2022-11-28T02:01:58.953Z,11.32
2022-11-28T02:04:28.302Z,4.65
2022-11-28T02:06:57.027Z,8.55
2022-11-28T02:09:25.505Z,4.40
2022-11-28T02:12:03.836Z,4.28
2022-11-28T02:14:41.096Z,3.28
2022-11-28T02:17:12.725Z,4.80
2022-11-28T02:19:53.120Z,2.83
2022-11-28T02:22:24.355Z,3.88
2022-11-28T02:25:08.693Z,2.97
2022-11-28T02:27:56.411Z,4.60
2022-11-28T02:31:02.510Z,7.40
2022-11-28T02:33:33.816Z,4.90
2022-11-28T02:36:12.636Z,7.17
2022-11-28T02:38:57.716Z,9.35
2022-11-28T02:42:04.588Z,4.38
2022-11-28T02:44:47.530Z,4.75
2022-11-28T02:47:25.799Z,4.00
2022-11-28T02:49:57.483Z,3.63
2022-11-28T02:52:34.806Z,6.57
2022-11-28T02:55:04.850Z,4.43
2022-11-28T02:57:49.948Z,3.95
2022-11-28T03:00:26.013Z,4.72
2022-11-28T03:03:09.996Z,3.17
2022-11-28T03:05:42.819Z,3.60
2022-11-28T03:08:42.550Z,3.03
2022-11-28T03:11:24.366Z,3.42
2022-11-28T03:14:04.469Z,6.13
2022-11-28T03:16:51.421Z,4.35
2022-11-28T03:19:32.773Z,3.38
2022-11-28T03:22:35.635Z,3.45
2022-11-28T03:25:19.376Z,6.30
2022-11-28T03:28:12.958Z,3.15
2022-11-28T03:30:48.301Z,3.97
2022-11-28T03:33:21.231Z,4.30
2022-11-28T03:35:56.804Z,4.55
2022-11-28T03:38:34.469Z,4.68
2022-11-28T03:41:12.907Z,3.17
2022-11-28T03:43:46.326Z,18.35
2022-11-28T03:46:18.699Z,4.82
2022-11-28T03:48:51.751Z,4.00
2022-11-28T03:51:24.707Z,6.25
2022-11-28T03:54:14.019Z,4.05
2022-11-28T03:56:55.704Z,4.53
2022-11-28T03:59:40.861Z,4.47
2022-11-28T04:02:37.293Z,4.55
2022-11-28T04:05:22.586Z,7.35
2022-11-28T04:08:02.244Z,4.55
2022-11-28T04:10:38.699Z,3.70
2022-11-28T04:13:21.449Z,4.47
2022-11-28T04:16:08.618Z,5.00
2022-11-28T04:18:47.314Z,3.63
2022-11-28T04:21:28.552Z,3.97
2022-11-28T04:24:02.668Z,5.13
2022-11-28T04:26:37.197Z,4.25
2022-11-28T04:29:11.223Z,6.93
2022-11-28T04:31:43.533Z,5.53
2022-11-28T04:34:16.300Z,4.20
2022-11-28T04:36:46.123Z,8.95
2022-11-28T04:39:19.491Z,5.88
2022-11-28T04:42:00.015Z,4.50
2022-11-28T04:44:37.780Z,5.38
2022-11-28T04:47:06.908Z,3.65
2022-11-28T04:49:35.313Z,4.22
2022-11-28T04:52:09.837Z,4.72
2022-11-28T04:54:42.753Z,4.70
2022-11-28T04:57:17.264Z,4.15
2022-11-28T04:59:47.004Z,6.13
2022-11-28T05:02:17.710Z,5.40
2022-11-28T05:04:46.108Z,4.28
2022-11-28T05:07:14.558Z,4.85
2022-11-28T05:09:42.990Z,5.03
2022-11-28T05:12:11.510Z,3.90
2022-11-28T05:14:41.128Z,4.53
2022-11-28T05:17:12.708Z,6.63
2022-11-28T05:19:41.149Z,5.10
2022-11-28T05:22:09.703Z,5.35
2022-11-28T05:24:38.131Z,7.18
2022-11-28T05:27:07.727Z,4.00
2022-11-28T05:29:36.093Z,8.10
2022-11-28T05:32:04.690Z,4.47
2022-11-28T05:34:33.205Z,4.40
2022-11-28T05:37:02.257Z,4.40
2022-11-28T05:39:31.323Z,3.90
2022-11-28T05:41:59.819Z,3.92
2022-11-28T05:44:28.196Z,4.43
2022-11-28T05:46:56.648Z,3.90
2022-11-28T05:49:26.257Z,3.60
2022-11-28T05:51:54.729Z,4.03
2022-11-28T05:54:23.181Z,4.95
2022-11-28T05:56:51.626Z,5.45
2022-11-28T05:59:20.033Z,4.20
2022-11-28T06:01:48.471Z,3.92
2022-11-28T06:04:17.026Z,4.20
2022-11-28T06:06:45.435Z,4.38
2022-11-28T06:09:13.987Z,3.78
2022-11-28T06:11:42.491Z,6.18
2022-11-28T06:14:11.451Z,5.00
2022-11-28T06:16:41.254Z,6.43
2022-11-28T06:19:13.380Z,4.35
2022-11-28T06:21:42.160Z,4.72
2022-11-28T06:24:10.898Z,6.88
2022-11-28T06:26:39.275Z,5.25
2022-11-28T06:29:07.724Z,5.60
2022-11-28T06:31:36.303Z,4.20
2022-11-28T06:34:04.850Z,4.93
2022-11-28T06:36:33.342Z,5.78
2022-11-28T06:39:01.739Z,8.75
2022-11-28T06:41:30.454Z,4.90
2022-11-28T06:43:58.948Z,5.97
2022-11-28T06:46:27.512Z,5.45
2022-11-28T06:48:56.031Z,14.82
2022-11-28T06:51:24.400Z,6.95
2022-11-28T06:53:54.186Z,8.95
2022-11-28T06:56:22.924Z,5.53
2022-11-28T06:58:56.186Z,6.38
2022-11-28T07:01:27.890Z,5.55
2022-11-28T07:03:57.197Z,5.30
2022-11-28T07:06:27.031Z,5.63
2022-11-28T07:08:57.577Z,7.40
2022-11-28T07:11:31.540Z,5.88
2022-11-28T07:14:03.101Z,11.35
2022-11-28T07:16:33.045Z,10.63
2022-11-28T07:19:01.656Z,7.55
2022-11-28T07:21:30.637Z,9.70
2022-11-28T07:24:00.049Z,8.30
2022-11-28T07:26:28.803Z,9.40
2022-11-28T07:28:59.646Z,7.32
2022-11-28T07:31:32.013Z,7.60
2022-11-28T07:34:03.535Z,7.32
2022-11-28T07:36:32.495Z,9.38
2022-11-28T07:39:03.090Z,8.63
2022-11-28T07:41:31.621Z,13.18
2022-11-28T07:44:02.282Z,10.40
2022-11-28T07:46:32.557Z,7.60
2022-11-28T07:49:01.444Z,10.57
2022-11-28T07:51:32.443Z,10.20
2022-11-28T07:54:02.848Z,8.98
2022-11-28T07:57:04.500Z,9.98
2022-11-28T07:59:22.779Z,9.25
2022-11-28T08:01:53.508Z,9.75
2022-11-28T08:04:22.902Z,9.80
2022-11-28T08:06:51.360Z,12.40
2022-11-28T08:09:19.823Z,13.65
2022-11-28T08:11:48.315Z,10.27
2022-11-28T08:14:16.743Z,10.02
2022-11-28T08:16:46.616Z,9.65
2022-11-28T08:19:15.398Z,10.52
2022-11-28T08:21:43.830Z,9.75
2022-11-28T08:24:12.272Z,13.15
2022-11-28T08:26:40.656Z,11.02
2022-11-28T08:29:09.976Z,11.75
2022-11-28T08:31:40.006Z,9.30
2022-11-28T08:34:10.750Z,9.20
2022-11-28T08:36:39.702Z,10.75
2022-11-28T08:39:24.953Z,11.15
2022-11-28T08:41:57.287Z,10.55
2022-11-28T08:44:27.311Z,10.50
2022-11-28T08:46:55.827Z,9.02
2022-11-28T08:49:24.241Z,14.13
2022-11-28T08:51:53.629Z,8.93
2022-11-28T08:54:22.159Z,9.27
2022-11-28T08:56:51.594Z,17.83
2022-11-28T08:59:20.040Z,11.93
2022-11-28T09:01:48.521Z,10.00
2022-11-28T09:04:18.551Z,9.80
2022-11-28T09:06:47.134Z,10.65
2022-11-28T09:09:15.598Z,9.23
2022-11-28T09:11:50.411Z,10.32
2022-11-28T09:14:19.885Z,8.25
2022-11-28T09:16:48.449Z,11.45
2022-11-28T09:19:16.946Z,10.35
2022-11-28T09:21:45.383Z,8.65
2022-11-28T09:24:16.646Z,9.80
2022-11-28T09:26:45.126Z,7.73
2022-11-28T09:29:13.535Z,11.38
2022-11-28T09:31:46.971Z,11.77
2022-11-28T09:34:16.167Z,8.60
2022-11-28T09:36:44.704Z,11.80
2022-11-28T09:39:13.115Z,11.40
2022-11-28T09:41:58.174Z,10.65
2022-11-28T09:44:32.814Z,10.10
2022-11-28T09:47:06.486Z,9.45
2022-11-28T09:49:46.345Z,11.15
2022-11-28T09:53:03.270Z,8.45
2022-11-28T09:55:40.202Z,12.05
2022-11-28T09:58:47.381Z,8.15
2022-11-28T10:01:18.580Z,12.30
2022-11-28T10:03:59.410Z,9.02
2022-11-28T10:06:41.323Z,9.80
2022-11-28T10:09:31.399Z,16.67
2022-11-28T10:12:27.660Z,10.63
2022-11-28T10:15:33.098Z,9.00
2022-11-28T10:18:13.727Z,13.00
2022-11-28T10:20:45.708Z,9.20
2022-11-28T10:23:30.219Z,11.98
2022-11-28T10:26:26.914Z,11.88
2022-11-28T10:28:57.851Z,11.63
2022-11-28T10:31:41.742Z,11.43
2022-11-28T10:34:15.898Z,11.35
2022-11-28T10:37:27.135Z,17.35
2022-11-28T10:39:56.766Z,12.95
2022-11-28T10:42:39.947Z,10.45
2022-11-28T10:45:34.758Z,12.77
2022-11-28T10:48:41.788Z,12.65
2022-11-28T10:51:15.721Z,14.98
2022-11-28T10:53:56.435Z,12.15
2022-11-28T10:56:40.648Z,13.90
2022-11-28T10:59:27.224Z,13.45
2022-11-28T11:01:57.191Z,17.08
2022-11-28T11:04:27.658Z,13.60
2022-11-28T11:07:16.138Z,16.42
2022-11-28T11:09:47.408Z,39.30
2022-11-28T11:12:21.644Z,21.15
2022-11-28T11:14:50.269Z,18.25
2022-11-28T11:17:36.157Z,15.23
2022-11-28T11:20:34.624Z,18.27
2022-11-28T11:23:24.114Z,16.17
2022-11-28T11:25:54.499Z,17.63
2022-11-28T11:28:27.927Z,37.50
2022-11-28T11:31:02.423Z,17.35
2022-11-28T11:33:37.666Z,20.15
2022-11-28T11:36:21.271Z,27.20
2022-11-28T11:38:49.766Z,32.33
2022-11-28T11:41:29.846Z,23.95
2022-11-28T11:44:29.360Z,19.10
2022-11-28T11:47:03.501Z,25.20
2022-11-28T11:49:34.983Z,26.33
2022-11-28T11:52:15.520Z,22.38
2022-11-28T11:54:46.927Z,25.63
2022-11-28T11:57:32.553Z,29.17
2022-11-28T12:00:08.132Z,31.10
2022-11-28T12:02:47.332Z,26.73
2022-11-28T12:05:19.609Z,37.20
2022-11-28T12:10:30.965Z,33.67
2022-11-28T12:12:59.653Z,24.75
2022-11-28T12:15:41.207Z,35.33
2022-11-28T12:18:30.329Z,28.40
2022-11-28T12:21:10.971Z,34.70
2022-11-28T12:23:55.820Z,47.75
2022-11-28T12:26:49.982Z,39.25
2022-11-28T12:29:45.639Z,43.03
2022-11-28T12:32:29.561Z,35.42
2022-11-28T12:35:11.527Z,19.80
2022-11-28T12:38:12.467Z,35.22
2022-11-28T12:41:14.624Z,68.03
2022-11-28T12:44:20.762Z,26.58
2022-11-28T12:47:10.981Z,33.08
2022-11-28T12:49:59.208Z,38.75
2022-11-28T12:52:47.141Z,39.35
2022-11-28T12:55:27.740Z,35.17
2022-11-28T12:58:23.419Z,27.58
2022-11-28T13:01:12.178Z,26.63
2022-11-28T13:04:10.724Z,38.97
2022-11-28T13:06:54.117Z,35.13
2022-11-28T13:09:35.385Z,41.55
2022-11-28T13:12:26.735Z,33.70
2022-11-28T13:15:00.010Z,35.63
2022-11-28T13:17:40.730Z,26.35
2022-11-28T13:20:45.669Z,29.23
2022-11-28T13:23:23.789Z,38.42
2022-11-28T13:26:15.550Z,38.10
2022-11-28T13:28:56.063Z,32.53
2022-11-28T13:31:31.370Z,57.25
2022-11-28T13:34:00.728Z,37.08
2022-11-28T13:39:52.813Z,43.80
2022-11-28T13:43:10.815Z,34.90
2022-11-28T13:45:44.642Z,46.58
2022-11-28T13:49:13.307Z,34.22
2022-11-28T13:51:32.044Z,33.47
2022-11-28T13:54:22.588Z,41.10
2022-11-28T13:57:22.113Z,30.73
2022-11-28T13:59:57.774Z,38.47
2022-11-28T14:02:34.711Z,33.47
2022-11-28T14:05:05.030Z,34.78
2022-11-28T14:07:34.048Z,36.72
2022-11-28T14:10:10.240Z,45.67
2022-11-28T14:12:54.340Z,40.80
2022-11-28T14:15:31.465Z,31.80
2022-11-28T14:18:54.506Z,37.20
2022-11-28T14:21:37.831Z,32.03
2022-11-28T14:24:51.157Z,44.20
2022-11-28T14:27:27.720Z,57.80
2022-11-28T14:29:57.805Z,36.25
2022-11-28T14:32:42.232Z,32.60
2022-11-28T14:35:52.024Z,37.53
2022-11-28T14:38:34.564Z,30.20
2022-11-28T14:41:11.978Z,30.45
2022-11-28T14:43:44.658Z,41.08
2022-11-28T14:46:16.201Z,29.02
2022-11-28T14:48:59.864Z,37.28
2022-11-28T14:51:47.327Z,32.08
2022-11-28T14:54:18.822Z,30.42
2022-11-28T14:56:48.307Z,37.13
2022-11-28T14:59:17.671Z,48.15
2022-11-28T15:02:07.501Z,26.65
2022-11-28T15:04:42.049Z,42.05
2022-11-28T15:07:32.580Z,47.88
2022-11-28T15:10:13.243Z,34.63
2022-11-28T15:13:16.693Z,33.13
2022-11-28T15:15:49.478Z,42.55
2022-11-28T15:18:20.073Z,37.00
2022-11-28T15:20:55.210Z,31.98
2022-11-28T15:23:25.774Z,36.25
2022-11-28T15:25:58.022Z,33.55
2022-11-28T15:28:32.415Z,34.95
2022-11-28T15:31:05.599Z,33.88
2022-11-28T15:33:34.415Z,27.00
2022-11-28T15:36:16.984Z,40.15
2022-11-28T15:38:46.473Z,39.05
2022-11-28T15:41:21.727Z,38.05
2022-11-28T15:43:50.789Z,32.95
2022-11-28T15:46:23.533Z,41.47
2022-11-28T15:48:52.833Z,24.00
2022-11-28T15:51:32.732Z,33.33
2022-11-28T15:54:05.005Z,35.60
2022-11-28T15:56:34.753Z,25.55
2022-11-28T15:59:03.158Z,25.65
2022-11-28T16:01:32.808Z,37.33
2022-11-28T16:04:10.491Z,51.00
2022-11-28T16:06:43.042Z,29.65
2022-11-28T16:09:17.614Z,28.00
2022-11-28T16:11:52.165Z,51.47
2022-11-28T16:14:44.720Z,39.40
2022-11-28T16:17:19.563Z,28.25
2022-11-28T16:19:51.431Z,29.17
2022-11-28T16:22:22.299Z,31.23
2022-11-28T16:24:55.263Z,26.85
2022-11-28T16:27:35.949Z,31.80
2022-11-28T16:30:27.109Z,26.52
2022-11-28T16:32:56.625Z,30.40
2022-11-28T16:35:40.261Z,44.55
2022-11-28T16:38:25.195Z,33.80
2022-11-28T16:41:01.082Z,27.95
2022-11-28T16:43:40.423Z,29.42
2022-11-28T16:46:19.851Z,28.30
2022-11-28T16:48:53.854Z,33.35
2022-11-28T16:51:22.247Z,40.28
2022-11-28T16:53:53.257Z,35.95
2022-11-28T16:56:30.931Z,39.13
2022-11-28T16:59:19.153Z,32.13
2022-11-28T17:01:52.452Z,41.50
2022-11-28T17:04:29.130Z,23.85
2022-11-28T17:07:01.757Z,42.17
2022-11-28T17:09:30.522Z,55.85
2022-11-28T17:12:11.025Z,44.60
2022-11-28T17:14:39.540Z,46.70
2022-11-28T17:17:14.781Z,40.00
2022-11-28T17:19:44.204Z,35.17
2022-11-28T17:22:25.742Z,36.10
2022-11-28T17:24:59.589Z,29.48
2022-11-28T17:27:28.243Z,38.28
2022-11-28T17:29:56.640Z,40.67
2022-11-28T17:32:25.162Z,42.92
2022-11-28T17:34:53.783Z,29.90
2022-11-28T17:37:22.155Z,28.88
2022-11-28T17:40:09.295Z,24.15
2022-11-28T17:42:38.653Z,36.72
2022-11-28T17:45:14.896Z,35.17
2022-11-28T17:47:43.283Z,48.15
2022-11-28T17:50:11.841Z,27.73
2022-11-28T17:52:40.469Z,24.65
2022-11-28T17:55:08.912Z,32.05
2022-11-28T17:57:37.507Z,31.10
2022-11-28T18:00:07.936Z,39.70
2022-11-28T18:02:36.337Z,28.77
2022-11-28T18:05:05.299Z,29.58
2022-11-28T18:07:33.846Z,51.72
2022-11-28T18:10:03.988Z,41.58
2022-11-28T18:12:32.397Z,31.95
2022-11-28T18:15:01.428Z,38.70
2022-11-28T18:17:29.853Z,43.78
2022-11-28T18:19:58.203Z,29.60
2022-11-28T18:22:26.597Z,40.83
2022-11-28T18:24:54.956Z,34.33
2022-11-28T18:27:24.456Z,36.95
2022-11-28T18:29:52.945Z,41.58
2022-11-28T18:32:21.352Z,34.53
2022-11-28T18:34:49.807Z,33.33
2022-11-28T18:37:18.352Z,31.60
2022-11-28T18:39:46.813Z,24.17
2022-11-28T18:42:15.473Z,38.30
2022-11-28T18:44:43.847Z,30.55
2022-11-28T18:47:12.377Z,39.85
2022-11-28T18:49:40.904Z,31.50
2022-11-28T18:52:09.766Z,32.42
2022-11-28T18:54:38.524Z,33.80
2022-11-28T18:57:08.058Z,30.90
2022-11-28T18:59:36.509Z,29.02
2022-11-28T19:02:05.062Z,29.15
2022-11-28T19:04:33.521Z,42.75
2022-11-28T19:07:03.886Z,31.67
2022-11-28T19:09:32.779Z,32.10
2022-11-28T19:12:01.199Z,30.17
2022-11-28T19:14:29.793Z,46.45
2022-11-28T19:16:58.392Z,33.28
2022-11-28T19:19:26.905Z,42.67
2022-11-28T19:21:55.914Z,39.58
2022-11-28T19:24:24.298Z,53.50
2022-11-28T19:26:52.730Z,40.83
2022-11-28T19:29:21.253Z,57.80
2022-11-28T19:31:49.702Z,36.95
2022-11-28T19:34:19.018Z,57.10
2022-11-28T19:36:50.076Z,33.55
2022-11-28T19:39:22.039Z,59.13
2022-11-28T19:41:52.914Z,36.90
2022-11-28T19:44:23.995Z,27.23
2022-11-28T19:46:53.436Z,29.42
2022-11-28T19:49:23.410Z,45.17
2022-11-28T19:51:55.567Z,36.65
2022-11-28T19:56:52.844Z,35.65
2022-11-28T19:59:21.332Z,29.05
2022-11-28T20:01:50.068Z,31.08
2022-11-28T20:04:20.223Z,36.65
2022-11-28T20:06:48.695Z,44.58
2022-11-28T20:09:17.095Z,38.50
2022-11-28T20:11:45.661Z,36.10
2022-11-28T20:14:18.341Z,39.67
2022-11-28T20:16:47.236Z,36.42
2022-11-28T20:19:17.780Z,41.97
2022-11-28T20:21:46.579Z,39.63
2022-11-28T20:24:15.553Z,34.30
2022-11-28T20:26:44.454Z,37.10
2022-11-28T20:29:15.904Z,56.58
2022-11-28T20:31:46.433Z,39.33
2022-11-28T20:34:17.794Z,45.13
2022-11-28T20:36:51.104Z,48.47
2022-11-28T20:39:19.798Z,51.35
2022-11-28T20:41:49.228Z,60.58
2022-11-28T20:44:18.734Z,53.85
2022-11-28T20:46:49.444Z,34.20
2022-11-28T20:49:18.343Z,33.47
2022-11-28T20:51:47.386Z,32.92
2022-11-28T20:54:16.031Z,35.10
2022-11-28T20:57:19.629Z,33.97
2022-11-28T20:59:33.585Z,51.15
2022-11-28T21:02:02.102Z,42.88
2022-11-28T21:04:31.388Z,36.20
2022-11-28T21:06:59.848Z,36.58
2022-11-28T21:09:28.234Z,36.75
2022-11-28T21:11:59.215Z,35.80
2022-11-28T21:14:29.487Z,49.70
2022-11-28T21:16:58.807Z,43.60
2022-11-28T21:19:27.316Z,33.10
2022-11-28T21:21:55.749Z,41.22
2022-11-28T21:24:24.259Z,45.42
2022-11-28T21:26:54.345Z,44.33
2022-11-28T21:29:24.385Z,57.88
2022-11-28T21:31:53.504Z,32.25
2022-11-28T21:34:22.824Z,50.67
2022-11-28T21:36:51.209Z,56.47
2022-11-28T21:39:20.532Z,59.20
2022-11-28T21:41:50.819Z,40.53
2022-11-28T21:44:20.343Z,45.45
2022-11-28T21:46:48.856Z,42.42
2022-11-28T21:49:17.372Z,98.55
2022-11-28T21:51:45.856Z,55.83
2022-11-28T21:54:14.230Z,43.95
2022-11-28T21:56:42.728Z,71.90
2022-11-28T21:59:11.206Z,45.45
2022-11-28T22:01:39.673Z,43.63
2022-11-28T22:04:09.845Z,31.50
2022-11-28T22:06:38.306Z,46.50
2022-11-28T22:09:09.414Z,47.42
2022-11-28T22:11:39.004Z,36.03
2022-11-28T22:14:07.605Z,47.47
2022-11-28T22:16:36.056Z,90.47
2022-11-28T22:19:04.553Z,61.58
2022-11-28T22:24:21.823Z,48.33
2022-11-28T22:26:50.417Z,41.38
2022-11-28T22:29:18.891Z,35.90
2022-11-28T22:31:47.371Z,48.30
2022-11-28T22:34:15.758Z,39.10
2022-11-28T22:36:44.172Z,47.90
2022-11-28T22:39:12.573Z,40.03
2022-11-28T22:41:41.168Z,36.63
2022-11-28T22:44:10.818Z,37.83
2022-11-28T22:46:39.639Z,32.38
2022-11-28T22:49:09.529Z,44.30
2022-11-28T22:51:38.599Z,32.05
2022-11-28T22:54:07.067Z,92.78
2022-11-28T22:56:35.578Z,64.45
2022-11-28T22:59:05.026Z,26.55
2022-11-28T23:01:34.273Z,42.83
2022-11-28T23:04:03.062Z,40.95
2022-11-28T23:06:34.534Z,42.65
2022-11-28T23:09:07.912Z,31.65
2022-11-28T23:11:38.744Z,32.53
2022-11-28T23:14:07.634Z,37.38
2022-11-28T23:16:39.430Z,48.28
2022-11-28T23:19:14.286Z,45.40
2022-11-28T23:21:44.996Z,30.65
2022-11-28T23:24:16.274Z,47.88
2022-11-28T23:26:44.815Z,32.27
2022-11-28T23:29:14.322Z,31.33
2022-11-28T23:31:44.169Z,32.97
2022-11-28T23:34:13.280Z,34.60
2022-11-28T23:36:44.765Z,27.88
2022-11-28T23:39:19.057Z,37.28
2022-11-28T23:41:48.144Z,32.55
2022-11-28T23:44:18.195Z,32.40
2022-11-28T23:46:48.116Z,25.50
2022-11-28T23:49:16.864Z,30.15
2022-11-28T23:51:46.293Z,31.30
2022-11-28T23:54:14.764Z,35.17
2022-11-28T23:56:43.467Z,44.55
2022-11-28T23:59:13.066Z,41.15
